ENHE

Heidrun Airport

Norway
METAR ENHE 251420Z 26014KT 9999 -RA FEW018 OVC030 08/04 Q1008 W///S7
Observed Flight Rules
Sep-25 @ 14:20 UTC (45 minutes ago) Marginal Visual Flight Rules
Wind Visibility Clouds Conditions
260° at 14 knots 10,000+ meters
  • Few at 1,800' AGL
  • Overcast at 3,000' AGL
  • Light Rain
Temperatures Readings
Current 8°C / 46°F
Dewpoint 4°C / 39°F
Humidity 76%
Altimeter 29.76" Hg
Pressure 1008 hPa
Elevation 1
METAR ENHE 251420Z 26014KT 9999 -RA FEW018 OVC030 08/04 Q1008 W///S7
Observed Flight Rules
Sep-25 @ 14:20 UTC
(45 minutes ago)
MVFR
Wind Visibility
260° at 14 knots 10,000+ meters
Clouds
  • Few at 1,800' AGL
  • Overcast at 3,000' AGL
Conditions
  • Light Rain
Temperature Dewpoint
8°C / 46°F 4°C / 39°F
Humidity Altimeter Pressure
76% 29.76" Hg 1008 hPa